Time;durP1;ratioP1;P1;durP2;ratioP2;P2;SDS_P1;SDS_P2;PMS_P1;PMS_P2;Temp;Humidity;BMP_temperature;BMP_pressure;BME280_temperature;BME280_humidity;BME280_pressure;Samples;Min_cycle;Max_cycle;Signal;HPM_P1;HPM_P2
2022/05/09 00:00:22;;;;;;;15.52;3.65;;;13.90;82.70;;;;;;5065563;28;20504;-68
2022/05/09 00:02:49;;;;;;;19.27;3.90;;;13.90;83.00;;;;;;5065277;28;20841;-70
2022/05/09 00:05:17;;;;;;;13.57;3.73;;;13.90;83.20;;;;;;5066872;28;20419;-68
2022/05/09 00:07:44;;;;;;;18.58;4.20;;;13.80;83.60;;;;;;5045214;28;20421;-68
2022/05/09 00:10:12;;;;;;;15.00;3.87;;;13.80;83.60;;;;;;5065941;28;20417;-67
2022/05/09 00:12:38;;;;;;;13.48;3.90;;;13.70;84.00;;;;;;5064595;28;20430;-69
2022/05/09 00:15:04;;;;;;;15.27;4.00;;;13.70;84.30;;;;;;5067505;28;20884;-68
2022/05/09 00:17:30;;;;;;;16.63;4.20;;;13.70;84.40;;;;;;5066283;28;20447;-68
2022/05/09 00:19:56;;;;;;;16.63;4.13;;;13.70;84.70;;;;;;5066307;28;20559;-68
2022/05/09 00:22:22;;;;;;;16.00;3.92;;;13.70;84.80;;;;;;5065689;28;20419;-69
2022/05/09 00:24:48;;;;;;;16.40;4.77;;;13.70;85.70;;;;;;5064765;28;20406;-69
2022/05/09 00:27:13;;;;;;;15.52;4.07;;;13.70;85.20;;;;;;5064618;28;20512;-70
2022/05/09 00:29:39;;;;;;;16.23;4.37;;;13.70;85.40;;;;;;5065205;28;20907;-70
2022/05/09 00:32:05;;;;;;;17.77;4.50;;;13.70;85.40;;;;;;5067002;28;20427;-69
2022/05/09 00:34:31;;;;;;;12.73;3.83;;;13.70;85.60;;;;;;5064072;28;20458;-70
2022/05/09 00:36:57;;;;;;;14.75;4.40;;;13.70;85.60;;;;;;5066079;28;20435;-68
2022/05/09 00:54:48;;;;;;;16.77;4.78;;;13.50;86.90;;;;;;4963502;28;20428;-68
2022/05/09 00:57:20;;;;;;;15.95;4.70;;;13.50;87.00;;;;;;4910718;29;20425;-68
2022/05/09 00:59:47;;;;;;;14.95;4.32;;;13.50;87.20;;;;;;4944274;28;21015;-69
2022/05/09 01:02:15;;;;;;;18.75;4.50;;;13.50;87.30;;;;;;4907554;29;20437;-69
2022/05/09 01:04:47;;;;;;;16.52;4.60;;;13.50;87.30;;;;;;4908047;29;20433;-69
2022/05/09 01:07:13;;;;;;;15.63;4.38;;;13.50;87.50;;;;;;4909151;29;20500;-69
2022/05/09 01:09:39;;;;;;;15.48;4.63;;;13.40;87.60;;;;;;4906589;29;20569;-68
2022/05/09 01:12:05;;;;;;;13.50;4.40;;;13.40;87.80;;;;;;4908569;29;20513;-69
2022/05/09 01:14:32;;;;;;;18.67;4.60;;;13.30;88.00;;;;;;4907329;29;20495;-69
2022/05/09 01:17:00;;;;;;;17.02;4.60;;;13.30;88.00;;;;;;4907786;29;20787;-68
2022/05/09 01:19:30;;;;;;;18.02;4.63;;;13.30;88.10;;;;;;4904798;29;20536;-68
2022/05/09 01:21:57;;;;;;;19.00;4.80;;;13.30;88.20;;;;;;4905838;29;20474;-69
2022/05/09 01:24:25;;;;;;;18.40;5.00;;;13.30;87.80;;;;;;4953564;28;20502;-68
2022/05/09 01:26:52;;;;;;;19.30;4.80;;;13.30;88.00;;;;;;4982793;28;20492;-68
2022/05/09 01:29:39;;;;;;;17.30;4.60;;;13.30;87.70;;;;;;4984161;28;20429;-68
2022/05/09 01:32:04;;;;;;;;;;;13.30;87.50;;;;;;5040145;28;21166;-68
2022/05/09 01:34:30;;;;;;;;;;;13.20;87.50;;;;;;5065570;28;19916;-66
2022/05/09 01:37:03;;;;;;;;;;;13.20;87.50;;;;;;5066611;28;20002;-66
2022/05/09 01:39:30;;;;;;;;;;;13.20;87.60;;;;;;5065856;28;19908;-66
2022/05/09 01:41:56;;;;;;;;;;;13.20;87.70;;;;;;5048447;28;20366;-68
2022/05/09 01:44:22;;;;;;;;;;;13.10;87.80;;;;;;5069026;28;19912;-67
2022/05/09 01:49:34;;;;;;;;;;;13.10;87.90;;;;;;5066173;28;20376;-66
2022/05/09 01:52:01;;;;;;;;;;;13.10;88.10;;;;;;5064492;28;20007;-68
2022/05/09 01:54:27;;;;;;;;;;;13.10;88.20;;;;;;5066784;28;20280;-69
2022/05/09 01:56:52;;;;;;;;;;;13.00;88.20;;;;;;5065528;28;19916;-68
2022/05/09 01:59:18;;;;;;;;;;;13.00;88.20;;;;;;5066720;28;20015;-67
2022/05/09 02:01:48;;;;;;;;;;;13.00;88.40;;;;;;5064534;28;20427;-67
2022/05/09 02:04:13;;;;;;;;;;;13.00;88.60;;;;;;5066454;28;19959;-68
2022/05/09 02:06:40;;;;;;;;;;;13.00;88.50;;;;;;5066605;28;20254;-67
2022/05/09 02:09:08;;;;;;;;;;;13.00;88.60;;;;;;5066291;28;20289;-68
2022/05/09 02:11:34;;;;;;;;;;;13.00;88.50;;;;;;5065942;28;19983;-69
2022/05/09 02:14:00;;;;;;;;;;;12.90;88.40;;;;;;5066079;28;19908;-70
2022/05/09 02:16:26;;;;;;;;;;;12.90;88.40;;;;;;5064381;28;19962;-69
2022/05/09 02:18:51;;;;;;;;;;;12.90;88.50;;;;;;5065345;28;19920;-68
2022/05/09 02:21:17;;;;;;;;;;;12.90;88.90;;;;;;5064715;28;20361;-69
2022/05/09 02:23:42;;;;;;;;;;;12.80;88.80;;;;;;5065431;28;19912;-68
2022/05/09 02:26:08;;;;;;;;;;;12.80;88.90;;;;;;5063574;28;19966;-68
2022/05/09 02:28:34;;;;;;;;;;;12.80;88.90;;;;;;5067600;28;19912;-68
2022/05/09 02:31:03;;;;;;;;;;;12.80;88.80;;;;;;5062884;28;20319;-69
2022/05/09 02:33:28;;;;;;;;;;;12.80;88.90;;;;;;5071464;28;19916;-69
2022/05/09 02:35:54;;;;;;;18.10;5.32;;;12.80;89.00;;;;;;5066095;28;20468;-68
2022/05/09 02:38:23;;;;;;;22.10;5.70;;;12.80;88.90;;;;;;5069571;28;20884;-67
2022/05/09 02:40:50;;;;;;;17.65;5.28;;;12.70;88.90;;;;;;5067081;28;20395;-68
2022/05/09 02:43:15;;;;;;;22.00;5.95;;;12.70;88.80;;;;;;5069235;28;20521;-69
2022/05/09 02:45:41;;;;;;;19.30;5.63;;;12.70;89.10;;;;;;5066176;28;20585;-68
2022/05/09 02:48:08;;;;;;;17.03;5.27;;;12.60;89.30;;;;;;5070100;28;20408;-68
2022/05/09 02:50:33;;;;;;;19.33;6.07;;;12.70;89.60;;;;;;5063089;28;20772;-70
2022/05/09 02:52:59;;;;;;;22.85;5.47;;;12.70;89.70;;;;;;5066785;28;20411;-68
2022/05/09 02:55:24;;;;;;;;;;;12.60;89.40;;;;;;5068183;28;19931;-69
2022/05/09 02:57:50;;;;;;;;;;;12.60;90.00;;;;;;5069742;28;19921;-68
2022/05/09 03:00:26;;;;;;;;;;;12.50;90.00;;;;;;5068019;28;20002;-69
2022/05/09 03:05:37;;;;;;;;;;;12.50;90.20;;;;;;5067604;28;19913;-69
2022/05/09 03:08:03;;;;;;;;;;;12.40;90.10;;;;;;5071116;28;19961;-69
2022/05/09 03:10:31;;;;;;;;;;;12.40;90.20;;;;;;5069993;28;19917;-68
2022/05/09 03:12:59;;;;;;;;;;;12.40;90.20;;;;;;5069376;28;19912;-70
2022/05/09 03:15:25;;;;;;;;;;;12.40;90.10;;;;;;5066209;28;20011;-70
2022/05/09 03:17:52;;;;;;;;;;;12.40;90.10;;;;;;5069162;28;20319;-69
2022/05/09 03:20:21;;;;;;;;;;;12.40;90.10;;;;;;5067944;28;19920;-70
2022/05/09 03:22:48;;;;;;;;;;;12.30;90.10;;;;;;5070713;28;19920;-69
2022/05/09 03:25:13;;;;;;;;;;;12.30;90.20;;;;;;5067393;28;19998;-69
2022/05/09 03:27:39;;;;;;;;;;;12.30;90.10;;;;;;5070031;28;20007;-69
2022/05/09 03:30:05;;;;;;;;;;;12.30;90.10;;;;;;5068615;28;19927;-69
2022/05/09 03:32:31;;;;;;;;;;;12.30;90.30;;;;;;5070379;28;20303;-68
2022/05/09 03:34:57;;;;;;;;;;;12.30;90.30;;;;;;5065558;28;20110;-69
2022/05/09 03:37:23;;;;;;;;;;;11.90;90.50;;;;;;5069240;28;19967;-67
2022/05/09 03:39:48;;;;;;;;;;;11.60;90.80;;;;;;5068502;28;19912;-69
2022/05/09 03:42:14;;;;;;;;;;;11.80;91.00;;;;;;5067983;28;19939;-68
2022/05/09 03:44:42;;;;;;;;;;;11.90;90.80;;;;;;5069735;28;19908;-70
2022/05/09 03:47:09;;;;;;;;;;;12.00;90.80;;;;;;5064920;28;19947;-70
2022/05/09 03:49:35;;;;;;;;;;;12.00;90.80;;;;;;5067219;28;19940;-68
2022/05/09 03:52:00;;;;;;;;;;;12.00;90.90;;;;;;5068196;28;20395;-69
2022/05/09 03:54:26;;;;;;;;;;;12.00;90.70;;;;;;5068073;28;19991;-67
2022/05/09 03:56:51;;;;;;;;;;;12.00;90.80;;;;;;5068277;28;19913;-67
2022/05/09 03:59:17;;;;;;;;;;;12.00;90.80;;;;;;5068968;28;20019;-67
2022/05/09 04:01:42;;;;;;;;;;;12.00;90.80;;;;;;5064846;28;19916;-68
2022/05/09 04:04:08;;;;;;;;;;;12.00;90.90;;;;;;5067492;28;19912;-68
2022/05/09 04:06:34;;;;;;;;;;;12.00;90.80;;;;;;5065700;28;19908;-67
2022/05/09 04:09:03;;;;;;;;;;;12.00;90.90;;;;;;5067389;28;19916;-68
2022/05/09 04:11:29;;;;;;;;;;;12.00;90.90;;;;;;5067761;28;20277;-68
2022/05/09 04:13:54;;;;;;;;;;;12.00;91.00;;;;;;5067937;28;19908;-68
2022/05/09 04:19:04;;;;;;;;;;;12.00;91.10;;;;;;5067254;28;19934;-68
2022/05/09 04:21:30;;;;;;;;;;;12.00;91.20;;;;;;5067615;28;20003;-67
2022/05/09 04:23:58;;;;;;;;;;;11.90;91.20;;;;;;5066594;28;19919;-67
2022/05/09 04:26:24;;;;;;;;;;;11.90;91.30;;;;;;5067484;28;19916;-67
2022/05/09 04:28:50;;;;;;;;;;;11.90;91.40;;;;;;5069396;28;19912;-68
2022/05/09 04:31:15;;;;;;;;;;;11.90;91.30;;;;;;5065778;28;19965;-67
2022/05/09 04:33:41;;;;;;;;;;;11.90;91.30;;;;;;5069417;28;19951;-69
2022/05/09 04:36:07;;;;;;;;;;;11.90;91.40;;;;;;5064483;28;20701;-69
2022/05/09 04:38:33;;;;;;;;;;;11.90;91.50;;;;;;5049742;28;19912;-68
2022/05/09 04:40:58;;;;;;;;;;;11.90;91.50;;;;;;5064253;28;19987;-68
2022/05/09 04:43:26;;;;;;;;;;;11.90;91.50;;;;;;5068662;28;19926;-69
2022/05/09 04:45:51;;;;;;;;;;;11.90;91.60;;;;;;5062044;28;19917;-69
2022/05/09 04:48:18;;;;;;;;;;;11.90;91.60;;;;;;5067008;28;20038;-67
2022/05/09 04:50:44;;;;;;;;;;;12.00;91.70;;;;;;5066428;28;20344;-70
2022/05/09 04:53:10;;;;;;;;;;;12.00;91.70;;;;;;5048925;28;19999;-68
2022/05/09 04:55:39;;;;;;;;;;;12.00;91.70;;;;;;5067227;28;19916;-68
2022/05/09 04:58:04;;;;;;;;;;;12.00;91.70;;;;;;5067880;28;19915;-69
2022/05/09 05:00:30;;;;;;;;;;;12.00;91.80;;;;;;5065494;28;20357;-68
2022/05/09 05:02:56;;;;;;;;;;;12.00;91.70;;;;;;5066810;28;19961;-68
2022/05/09 05:05:23;;;;;;;;;;;12.10;91.70;;;;;;5065139;28;19996;-67
2022/05/09 05:07:48;;;;;;;;;;;12.10;91.80;;;;;;5068440;28;20345;-68
2022/05/09 05:10:14;;;;;;;;;;;12.10;91.80;;;;;;5064886;28;19924;-68
2022/05/09 05:12:40;;;;;;;;;;;12.20;91.70;;;;;;5066695;28;20277;-70
2022/05/09 05:15:06;;;;;;;;;;;12.20;91.70;;;;;;5066853;28;19908;-69
2022/05/09 05:17:33;;;;;;;;;;;12.20;91.90;;;;;;5069275;28;19912;-69
2022/05/09 05:19:58;;;;;;;;;;;12.20;91.70;;;;;;5063654;28;20004;-66
2022/05/09 05:22:25;;;;;;;;;;;12.30;91.60;;;;;;5064805;28;20022;-68
2022/05/09 05:24:53;;;;;;;;;;;12.30;91.60;;;;;;5065534;28;19916;-68
2022/05/09 05:27:22;;;;;;;;;;;12.30;91.50;;;;;;5065959;28;20414;-67
2022/05/09 05:29:50;;;;;;;;;;;12.40;91.50;;;;;;5063003;28;19908;-66
2022/05/09 05:32:17;;;;;;;;;;;12.40;91.40;;;;;;5067122;28;19919;-67
2022/05/09 05:34:42;;;;;;;;;;;12.40;91.20;;;;;;5065910;28;19949;-68
2022/05/09 05:37:08;;;;;;;;;;;12.10;91.50;;;;;;5065211;28;19952;-65
2022/05/09 05:39:36;;;;;;;;;;;11.80;91.80;;;;;;5064756;28;19957;-70
2022/05/09 05:42:03;;;;;;;;;;;11.60;92.10;;;;;;5067002;28;19956;-66
2022/05/09 05:44:28;;;;;;;;;;;11.50;92.20;;;;;;5065537;28;19952;-69
2022/05/09 05:46:54;;;;;;;;;;;11.40;92.20;;;;;;5049513;28;20707;-67
2022/05/09 05:49:26;;;;;;;;;;;11.30;92.30;;;;;;5067016;28;20007;-67
2022/05/09 05:51:51;;;;;;;;;;;11.30;92.30;;;;;;5065202;28;20421;-67
2022/05/09 05:54:17;;;;;;;;;;;11.20;92.30;;;;;;5064789;28;20131;-70
2022/05/09 05:56:42;;;;;;;;;;;11.20;92.30;;;;;;5066042;28;19953;-68
2022/05/09 05:59:09;;;;;;;;;;;11.20;92.30;;;;;;5064810;28;20096;-68
2022/05/09 06:01:34;;;;;;;;;;;11.20;92.30;;;;;;5063346;28;20394;-68
2022/05/09 06:04:00;;;;;;;;;;;11.20;92.20;;;;;;5066413;28;19949;-68
2022/05/09 06:06:26;;;;;;;;;;;11.30;92.20;;;;;;5061649;28;19949;-69
2022/05/09 06:08:51;;;;;;;;;;;11.30;92.20;;;;;;5062653;28;19967;-69
2022/05/09 06:11:17;;;;;;;;;;;11.30;92.20;;;;;;5070271;28;20413;-64
2022/05/09 06:13:42;;;;;;;;;;;11.30;92.10;;;;;;5068658;28;19960;-62
2022/05/09 06:16:08;;;;;;;;;;;11.30;92.10;;;;;;5069118;28;19945;-68
2022/05/09 06:18:33;;;;;;;;;;;11.30;92.00;;;;;;5072340;28;20422;-68
2022/05/09 06:20:59;;;;;;;;;;;11.40;92.00;;;;;;5069912;28;20028;-66
2022/05/09 06:23:25;;;;;;;;;;;11.40;92.00;;;;;;5068235;28;20313;-67
2022/05/09 06:25:51;;;;;;;;;;;11.40;92.00;;;;;;5069441;28;19945;-67
2022/05/09 06:28:18;;;;;;;;;;;11.50;92.00;;;;;;5070323;28;19945;-68
2022/05/09 06:30:44;;;;;;;;;;;11.50;91.90;;;;;;5068181;28;20002;-69
2022/05/09 06:33:10;;;;;;;;;;;11.50;91.90;;;;;;5071471;28;19960;-68
2022/05/09 06:35:46;;;;;;;;;;;11.50;91.90;;;;;;5067231;28;19951;-68
2022/05/09 06:38:15;;;;;;;;;;;11.60;91.90;;;;;;5067223;28;19955;-69
2022/05/09 06:40:40;;;;;;;;;;;11.60;91.90;;;;;;5067572;28;19949;-68
2022/05/09 06:43:07;;;;;;;;;;;11.70;91.90;;;;;;5061205;28;20367;-67
2022/05/09 06:45:34;;;;;;;;;;;11.70;91.90;;;;;;5066244;28;19995;-68
2022/05/09 06:48:00;;;;;;;;;;;11.70;91.90;;;;;;5065334;28;20601;-68
2022/05/09 06:50:27;;;;;;;;;;;11.80;91.90;;;;;;5066032;28;19953;-68
2022/05/09 06:52:56;;;;;;;;;;;11.80;91.80;;;;;;5070681;28;19971;-69
2022/05/09 06:55:22;;;;;;;;;;;11.90;91.70;;;;;;5069210;28;20377;-68
2022/05/09 06:57:49;;;;;;;;;;;11.90;91.50;;;;;;5070110;28;20032;-68
2022/05/09 07:00:16;;;;;;;;;;;12.00;91.40;;;;;;5059717;28;19974;-68
2022/05/09 07:02:42;;;;;;;;;;;12.10;91.30;;;;;;5067522;28;20425;-69
2022/05/09 07:05:08;;;;;;;;;;;12.10;91.10;;;;;;5061259;28;19980;-67
2022/05/09 07:07:37;;;;;;;;;;;12.10;90.90;;;;;;5067492;28;19945;-67
2022/05/09 07:10:03;;;;;;;;;;;12.20;90.80;;;;;;5067557;28;20002;-68
2022/05/09 07:12:29;;;;;;;;;;;12.30;90.70;;;;;;5067535;28;19953;-68
2022/05/09 07:14:54;;;;;;;;;;;12.30;90.50;;;;;;5064819;28;20369;-67
2022/05/09 07:17:20;;;;;;;;;;;12.40;90.40;;;;;;5068343;28;19980;-66
2022/05/09 07:19:46;;;;;;;;;;;12.40;90.30;;;;;;5067805;28;19949;-68
2022/05/09 07:22:11;;;;;;;;;;;12.50;90.30;;;;;;5067748;28;19948;-66
2022/05/09 07:24:37;;;;;;;;;;;12.50;90.20;;;;;;5068701;28;19963;-68
2022/05/09 07:27:03;;;;;;;;;;;12.60;90.10;;;;;;5068225;28;20043;-67
2022/05/09 07:29:29;;;;;;;;;;;12.60;90.00;;;;;;5052391;28;19949;-68
2022/05/09 07:31:55;;;;;;;;;;;12.70;89.80;;;;;;5068233;28;19960;-67
2022/05/09 07:34:20;;;;;;;;;;;12.80;89.40;;;;;;5065525;28;20457;-67
2022/05/09 07:36:46;;;;;;;;;;;12.80;89.10;;;;;;5066002;28;20040;-67
2022/05/09 07:39:13;;;;;;;;;;;12.90;89.00;;;;;;5067081;28;19995;-68
2022/05/09 07:41:39;;;;;;;;;;;12.90;88.80;;;;;;5067759;28;20353;-69
2022/05/09 07:44:04;;;;;;;;;;;13.50;85.70;;;;;;5067657;28;19926;-67
2022/05/09 07:46:30;;;;;;;;;;;14.00;83.00;;;;;;5067583;28;19916;-68
2022/05/09 07:48:55;;;;;;;;;;;14.20;81.70;;;;;;5066422;28;19908;-67
2022/05/09 07:51:21;;;;;;;;;;;14.40;80.10;;;;;;5067974;28;19920;-68
2022/05/09 07:53:46;;;;;;;;;;;14.60;79.90;;;;;;5065203;28;19969;-69
2022/05/09 07:56:12;;;;;;;;;;;14.80;78.90;;;;;;5069152;28;19999;-67
2022/05/09 07:58:37;;;;;;;;;;;14.90;77.80;;;;;;5066858;28;20273;-67
2022/05/09 08:01:04;;;;;;;;;;;15.00;76.00;;;;;;5067987;28;20332;-71
2022/05/09 08:03:31;;;;;;;;;;;15.20;76.00;;;;;;5064858;28;19920;-71
2022/05/09 08:05:59;;;;;;;;;;;15.30;76.30;;;;;;5066035;28;20002;-70
2022/05/09 08:08:29;;;;;;;;;;;15.50;76.40;;;;;;5064775;28;19959;-68
2022/05/09 08:10:55;;;;;;;;;;;15.70;76.50;;;;;;5067654;28;20013;-67
2022/05/09 08:13:21;;;;;;;;;;;15.90;73.80;;;;;;5068530;28;19999;-70
2022/05/09 08:15:47;;;;;;;;;;;16.10;71.90;;;;;;5065376;28;19954;-68
2022/05/09 08:18:16;;;;;;;;;;;16.40;72.00;;;;;;5066536;28;19935;-68
2022/05/09 08:20:45;;;;;;;18.80;4.80;;;16.70;70.80;;;;;;5065280;28;20410;-70
2022/05/09 08:23:16;;;;;;;11.82;4.15;;;17.30;66.00;;;;;;5063779;28;20423;-69
2022/05/09 08:25:44;;;;;;;19.63;4.75;;;17.90;60.50;;;;;;5064217;28;20511;-70
2022/05/09 08:28:10;;;;;;;15.75;4.38;;;18.50;57.70;;;;;;5066033;28;20404;-70
2022/05/09 08:30:38;;;;;;;13.43;4.10;;;18.70;56.70;;;;;;5061175;28;20507;-69
2022/05/09 08:33:15;;;;;;;16.55;4.20;;;18.90;55.90;;;;;;5064019;28;20430;-69
2022/05/09 08:35:43;;;;;;;15.55;4.60;;;18.90;54.90;;;;;;5062792;28;20485;-68
2022/05/09 08:38:10;;;;;;;16.52;4.45;;;18.90;55.10;;;;;;5062878;28;20410;-68
2022/05/09 08:41:01;;;;;;;18.63;4.45;;;18.70;55.40;;;;;;5058256;28;20419;-69
2022/05/09 08:44:05;;;;;;;15.73;4.20;;;18.70;55.00;;;;;;5062283;28;20862;-70
2022/05/09 08:46:43;;;;;;;11.87;4.00;;;18.80;55.00;;;;;;5064198;28;20454;-70
2022/05/09 08:49:57;;;;;;;16.63;4.28;;;18.80;54.80;;;;;;5064642;28;20430;-69
2022/05/09 08:52:30;;;;;;;;;;;19.10;54.50;;;;;;5063355;28;20423;-69
2022/05/09 08:54:56;;;;;;;15.65;3.88;;;19.70;52.10;;;;;;5064350;28;20466;-69
2022/05/09 08:57:29;;;;;;;15.93;4.00;;;20.20;50.90;;;;;;5065006;28;20892;-70
2022/05/09 09:00:12;;;;;;;10.13;4.25;;;20.80;49.90;;;;;;5063235;28;20415;-69
2022/05/09 09:02:49;;;;;;;17.00;4.65;;;21.40;47.10;;;;;;5065647;28;20495;-67
2022/05/09 09:05:23;;;;;;;15.82;4.30;;;22.00;45.50;;;;;;5060804;28;20420;-67
2022/05/09 09:08:19;;;;;;;11.55;4.15;;;22.50;44.40;;;;;;5062078;28;20411;-69
2022/05/09 09:11:37;;;;;;;12.38;3.78;;;23.00;43.00;;;;;;5061724;28;20951;-70
2022/05/09 09:14:24;;;;;;;12.27;3.97;;;23.40;41.20;;;;;;5043967;28;20432;-70
2022/05/09 09:16:49;;;;;;;;;;;23.90;40.30;;;;;;5056998;28;20435;-68
2022/05/09 09:19:18;;;;;;;;;;;24.10;39.50;;;;;;5045722;28;19912;-70
2022/05/09 09:21:57;;;;;;;;;;;24.30;38.60;;;;;;5060296;28;20003;-69
2022/05/09 09:24:46;;;;;;;;;;;24.50;37.40;;;;;;5055623;28;19913;-71
2022/05/09 09:27:23;;;;;;;;;;;24.70;38.30;;;;;;5064980;28;19962;-67
2022/05/09 09:29:51;;;;;;;;;;;25.00;37.00;;;;;;5061430;28;19908;-68
2022/05/09 09:32:20;;;;;;;;;;;25.10;35.80;;;;;;5061558;28;19909;-69
2022/05/09 09:35:00;;;;;;;;;;;25.00;36.00;;;;;;5058068;28;20300;-67
2022/05/09 09:37:33;;;;;;;;;;;25.00;36.30;;;;;;5061345;28;19912;-71
2022/05/09 09:39:59;;;;;;;;;;;24.90;35.60;;;;;;5056507;28;19920;-70
2022/05/09 09:42:25;;;;;;;;;;;24.80;35.80;;;;;;5058912;28;19920;-69
2022/05/09 09:44:53;;;;;;;;;;;24.90;36.20;;;;;;5062652;28;19909;-69
2022/05/09 09:47:18;;;;;;;;;;;25.00;35.50;;;;;;5061860;28;19912;-69
2022/05/09 09:49:45;;;;;;;;;;;25.20;35.80;;;;;;5058947;28;19908;-73
2022/05/09 09:52:16;;;;;;;;;;;25.20;35.30;;;;;;5058536;28;19934;-68
2022/05/09 09:54:46;;;;;;;;;;;25.30;34.00;;;;;;5062045;28;20422;-71
2022/05/09 09:57:18;;;;;;;;;;;25.30;33.60;;;;;;5057670;28;19952;-71
2022/05/09 09:59:44;;;;;;;15.23;3.38;;;25.40;34.00;;;;;;5056139;28;20430;-71
2022/05/09 10:02:31;;;;;;;15.07;3.92;;;25.60;34.00;;;;;;5057807;28;20959;-69
2022/05/09 10:05:19;;;;;;;14.10;3.50;;;25.70;33.00;;;;;;5060390;28;20545;-71
2022/05/09 10:07:46;;;;;;;12.60;3.20;;;25.80;33.30;;;;;;5057636;28;20435;-71
2022/05/09 10:10:16;;;;;;;8.80;2.97;;;25.90;32.80;;;;;;5057651;28;20411;-68
2022/05/09 10:12:50;;;;;;;11.13;3.67;;;25.90;32.50;;;;;;5064969;28;20418;-68
2022/05/09 10:15:39;;;;;;;12.20;3.50;;;25.80;32.90;;;;;;5059448;28;20417;-68
2022/05/09 10:18:23;;;;;;;13.70;3.17;;;25.80;33.20;;;;;;5063665;28;20435;-65
2022/05/09 10:20:51;;;;;;;;;;;26.00;33.00;;;;;;5061952;28;20507;-64
2022/05/09 10:26:24;;;;;;;9.57;3.00;;;29.20;29.60;;;;;;5062767;28;20258;-66
2022/05/09 10:29:02;;;;;;;9.73;3.22;;;31.20;27.40;;;;;;5058910;28;20427;-66
2022/05/09 10:31:30;;;;;;;10.13;3.10;;;32.60;25.60;;;;;;5064273;28;20407;-67
2022/05/09 10:34:05;;;;;;;9.77;3.37;;;33.80;24.50;;;;;;5064176;28;20449;-64
2022/05/09 10:36:50;;;;;;;7.45;2.90;;;34.40;23.70;;;;;;5064668;28;20438;-65
2022/05/09 10:39:31;;;;;;;9.20;3.08;;;34.70;22.60;;;;;;5059993;28;20424;-67
2022/05/09 10:42:07;;;;;;;5.95;2.60;;;35.20;22.30;;;;;;5063230;28;20748;-66
2022/05/09 10:44:52;;;;;;;10.00;2.33;;;35.70;21.50;;;;;;5062566;28;20428;-66
2022/05/09 10:47:24;;;;;;;8.32;2.33;;;35.80;21.80;;;;;;5062173;28;20806;-66
2022/05/09 10:49:57;;;;;;;11.15;2.50;;;36.10;22.00;;;;;;5061423;28;20411;-66
2022/05/09 10:52:41;;;;;;;8.37;3.07;;;36.30;20.80;;;;;;5065124;28;20410;-67
2022/05/09 10:55:26;;;;;;;6.50;2.97;;;36.30;21.20;;;;;;5062662;28;20895;-66
2022/05/09 10:58:07;;;;;;;10.68;3.40;;;36.40;21.20;;;;;;5065302;28;20469;-66
2022/05/09 11:00:38;;;;;;;8.75;3.85;;;36.50;21.60;;;;;;5062226;28;20415;-65
2022/05/09 11:03:07;;;;;;;8.13;3.15;;;36.60;21.50;;;;;;5067629;28;20415;-65
2022/05/09 11:05:44;;;;;;;11.90;3.60;;;36.70;21.60;;;;;;5063868;28;20419;-67
2022/05/09 11:08:36;;;;;;;11.70;4.65;;;37.00;21.00;;;;;;5068011;28;20788;-65
2022/05/09 11:11:13;;;;;;;8.65;3.58;;;36.90;21.10;;;;;;5057357;28;20438;-68
2022/05/09 11:14:13;;;;;;;9.73;3.40;;;36.80;21.30;;;;;;5065831;28;20413;-66
2022/05/09 11:17:01;;;;;;;9.18;2.90;;;36.40;21.40;;;;;;5067282;28;20752;-65
2022/05/09 11:19:45;;;;;;;;;;;35.70;22.00;;;;;;5058611;28;20412;-65
2022/05/09 11:22:24;;;;;;;;;;;35.10;22.90;;;;;;5064601;28;19919;-65
2022/05/09 11:24:59;;;;;;;;;;;34.80;23.30;;;;;;5063440;28;19923;-67
2022/05/09 11:27:39;;;;;;;;;;;34.60;23.20;;;;;;5068896;28;20250;-67
2022/05/09 11:30:17;;;;;;;;;;;34.30;24.00;;;;;;5067857;28;19916;-67
2022/05/09 11:32:43;;;;;;;;;;;33.90;24.60;;;;;;5066226;28;19918;-66
2022/05/09 11:35:12;;;;;;;;;;;33.70;24.70;;;;;;5066543;28;20256;-65
2022/05/09 11:37:46;;;;;;;;;;;33.50;24.20;;;;;;5068707;28;19908;-67
2022/05/09 11:40:21;;;;;;;;;;;33.40;25.00;;;;;;5069596;28;20370;-66
2022/05/09 11:45:31;;;;;;;;;;;33.10;24.90;;;;;;5067329;28;20389;-63
2022/05/09 11:48:15;;;;;;;;;;;32.90;24.90;;;;;;5067620;28;19912;-69
2022/05/09 11:50:46;;;;;;;;;;;32.50;26.40;;;;;;5065533;28;19961;-67
2022/05/09 11:53:13;;;;;;;;;;;32.00;25.50;;;;;;5066645;28;20006;-66
2022/05/09 11:55:41;;;;;;;;;;;31.60;25.40;;;;;;5067215;28;20018;-66
2022/05/09 11:58:07;;;;;;;;;;;31.30;26.60;;;;;;5066981;28;19916;-66
2022/05/09 12:00:38;;;;;;;;;;;31.20;26.80;;;;;;5067377;28;19909;-66
2022/05/09 12:03:05;;;;;;;;;;;31.10;27.00;;;;;;5062736;28;19957;-65
2022/05/09 12:05:31;;;;;;;;;;;30.90;27.90;;;;;;5065389;28;20806;-68
2022/05/09 12:08:17;;;;;;;;;;;30.60;27.60;;;;;;5062055;28;19916;-68
2022/05/09 12:10:46;;;;;;;;;;;30.40;28.90;;;;;;5064095;28;19912;-66
2022/05/09 12:13:35;;;;;;;;;;;30.40;27.40;;;;;;5068148;28;19912;-66
2022/05/09 12:16:00;;;;;;;;;;;30.20;28.40;;;;;;5068569;28;19956;-69
2022/05/09 12:18:51;;;;;;;;;;;30.00;28.30;;;;;;5068416;28;19947;-68
2022/05/09 12:21:18;;;;;;;;;;;29.80;28.60;;;;;;5062078;28;19912;-67
2022/05/09 12:23:53;;;;;;;;;;;29.50;28.20;;;;;;5063907;28;19926;-66
2022/05/09 12:26:27;;;;;;;;;;;29.50;28.30;;;;;;5067596;28;20357;-66
2022/05/09 12:29:05;;;;;;;;;;;29.70;30.00;;;;;;5066697;28;19920;-66
2022/05/09 12:31:32;;;;;;;;;;;29.90;28.80;;;;;;5066834;28;19912;-63
2022/05/09 12:33:58;;;;;;;;;;;30.10;28.30;;;;;;5065971;28;20328;-67
2022/05/09 12:36:25;;;;;;;;;;;30.30;28.10;;;;;;5059708;28;19913;-64
2022/05/09 12:38:53;;;;;;;;;;;30.30;28.10;;;;;;5067366;28;19908;-64
2022/05/09 12:41:20;;;;;;;;;;;30.40;28.00;;;;;;5065528;28;20317;-67
2022/05/09 12:43:52;;;;;;;;;;;30.40;29.40;;;;;;5068419;28;19923;-64
2022/05/09 12:46:24;;;;;;;;;;;30.40;28.30;;;;;;5064077;28;19964;-66
2022/05/09 12:48:50;;;;;;;;;;;30.40;28.30;;;;;;5068814;28;19916;-64
2022/05/09 12:51:16;;;;;;;;;;;30.30;28.60;;;;;;5067967;28;20333;-65
2022/05/09 12:53:41;;;;;;;;;;;30.20;27.70;;;;;;5068207;28;20005;-64
2022/05/09 12:56:12;;;;;;;;;;;29.90;27.70;;;;;;5064305;28;19909;-66
2022/05/09 12:58:39;;;;;;;;;;;29.70;28.10;;;;;;5069902;28;20007;-71
2022/05/09 13:01:08;;;;;;;;;;;29.60;28.80;;;;;;5065281;28;19999;-68
2022/05/09 13:03:53;;;;;;;;;;;29.60;28.30;;;;;;5066667;28;19916;-70
2022/05/09 13:06:27;;;;;;;;;;;29.70;31.00;;;;;;5063162;28;19908;-69
2022/05/09 13:08:53;;;;;;;;;;;29.90;31.40;;;;;;5065361;28;19912;-69
2022/05/09 13:11:21;;;;;;;;;;;30.10;29.60;;;;;;5066732;28;19913;-70
2022/05/09 13:13:58;;;;;;;12.27;3.92;;;30.10;28.30;;;;;;5068045;28;19923;-72
2022/05/09 13:16:30;;;;;;;7.90;3.65;;;30.30;28.90;;;;;;5065686;28;20765;-68
2022/05/09 13:18:56;;;;;;;7.27;2.57;;;30.30;28.90;;;;;;5065686;28;20403;-71
2022/05/09 13:21:27;;;;;;;10.10;3.20;;;30.30;32.20;;;;;;5063589;28;20478;-70
2022/05/09 13:23:53;;;;;;;9.90;4.00;;;30.30;31.50;;;;;;5065753;28;20403;-72
2022/05/09 13:26:26;;;;;;;13.68;4.20;;;30.20;29.30;;;;;;5058734;28;20415;-73
2022/05/09 13:29:09;;;;;;;8.45;3.10;;;29.90;28.80;;;;;;5065945;28;20451;-68
2022/05/09 13:31:41;;;;;;;10.45;3.10;;;29.60;30.30;;;;;;5065137;28;20903;-71
2022/05/09 13:34:21;;;;;;;18.00;4.25;;;29.50;32.00;;;;;;5063438;28;20537;-69
2022/05/09 13:36:47;;;;;;;12.13;4.10;;;29.30;30.00;;;;;;5066339;28;20426;-69
2022/05/09 13:39:31;;;;;;;18.30;4.10;;;29.20;30.80;;;;;;5066975;28;20538;-68
2022/05/09 13:42:02;;;;;;;9.50;2.78;;;29.20;31.20;;;;;;5065351;28;20473;-69
2022/05/09 13:44:31;;;;;;;11.47;4.00;;;29.10;32.80;;;;;;5066165;28;20415;-70
2022/05/09 13:46:57;;;;;;;8.70;2.85;;;29.10;31.80;;;;;;5063459;28;20412;-69
2022/05/09 13:49:24;;;;;;;7.40;3.03;;;29.10;33.40;;;;;;5063546;28;20403;-70
2022/05/09 13:52:12;;;;;;;13.07;4.03;;;29.10;33.50;;;;;;5064952;28;20863;-68
2022/05/09 13:54:51;;;;;;;10.13;3.30;;;29.00;32.20;;;;;;5063809;28;20412;-70
2022/05/09 13:57:18;;;;;;;9.32;3.40;;;28.90;32.40;;;;;;5064507;28;20527;-67
2022/05/09 13:59:48;;;;;;;15.00;3.75;;;28.80;31.20;;;;;;5065410;28;20407;-67
2022/05/09 14:02:15;;;;;;;8.70;3.80;;;28.70;31.70;;;;;;5064276;28;20786;-70
2022/05/09 14:04:44;;;;;;;9.05;3.58;;;28.70;32.00;;;;;;5065646;28;20920;-69
2022/05/09 14:10:11;;;;;;;10.70;3.60;;;28.50;31.40;;;;;;5065621;28;20430;-68
2022/05/09 14:12:37;;;;;;;11.00;3.40;;;28.40;32.40;;;;;;5063416;28;20403;-68
2022/05/09 14:15:16;;;;;;;12.50;4.50;;;28.40;32.20;;;;;;5064468;28;21011;-69
2022/05/09 14:17:50;;;;;;;11.15;3.47;;;28.50;32.20;;;;;;5063828;28;20418;-69
2022/05/09 14:20:48;;;;;;;10.80;3.75;;;28.50;32.60;;;;;;5064520;28;20412;-69
2022/05/09 14:23:17;;;;;;;11.27;3.17;;;28.40;32.50;;;;;;5064875;28;20415;-68
2022/05/09 14:31:43;;;;;;;10.52;3.85;;;28.30;32.50;;;;;;5064952;28;20419;-67